Time;durP1;ratioP1;P1;durP2;ratioP2;P2;SDS_P1;SDS_P2;PMS_P1;PMS_P2;Temp;Humidity;BMP_temperature;BMP_pressure;BME280_temperature;BME280_humidity;BME280_pressure;Samples;Min_cycle;Max_cycle;Signal;HPM_P1;HPM_P2
2023/08/22 00:00:30;;;;;;;3.88;1.95;;;21.90;93.50;;;;;;5073688;28;20418;-79
2023/08/22 00:02:56;;;;;;;4.18;1.80;;;21.90;93.50;;;;;;5073580;28;20044;-79
2023/08/22 00:05:23;;;;;;;4.13;1.95;;;21.90;93.50;;;;;;5073479;28;20052;-79
2023/08/22 00:07:49;;;;;;;4.72;1.85;;;21.90;93.50;;;;;;5072672;28;20055;-79
2023/08/22 00:10:15;;;;;;;4.63;2.10;;;21.80;93.50;;;;;;5073206;28;20498;-79
2023/08/22 00:12:42;;;;;;;3.88;1.95;;;21.80;93.50;;;;;;5071812;28;20048;-79
2023/08/22 00:15:09;;;;;;;3.42;1.58;;;21.80;93.50;;;;;;5072543;28;20044;-79
2023/08/22 00:17:38;;;;;;;4.18;1.63;;;21.80;93.60;;;;;;5072703;28;20048;-78
2023/08/22 00:20:07;;;;;;;4.57;1.80;;;21.70;93.60;;;;;;5072445;28;20115;-79
2023/08/22 00:22:36;;;;;;;4.25;1.70;;;21.70;93.60;;;;;;5072498;28;20043;-79
2023/08/22 00:25:06;;;;;;;4.50;1.88;;;21.60;93.90;;;;;;5072788;28;20044;-79
2023/08/22 00:27:31;;;;;;;4.55;1.58;;;21.70;93.60;;;;;;5073013;28;20517;-79
2023/08/22 00:29:57;;;;;;;4.63;1.60;;;21.60;93.70;;;;;;5072697;28;20048;-79
2023/08/22 00:32:24;;;;;;;5.80;2.10;;;21.60;93.70;;;;;;5072345;28;20044;-79
2023/08/22 00:34:50;;;;;;;5.25;1.77;;;21.60;93.70;;;;;;5070641;28;20037;-78
2023/08/22 00:37:15;;;;;;;5.03;2.33;;;21.50;93.70;;;;;;5073079;28;20042;-79
2023/08/22 00:39:41;;;;;;;5.55;2.28;;;21.50;93.70;;;;;;5071753;28;20512;-79
2023/08/22 00:42:07;;;;;;;5.22;2.17;;;21.50;93.80;;;;;;5066223;28;20489;-79
2023/08/22 00:44:32;;;;;;;5.22;2.08;;;21.50;93.80;;;;;;5073054;28;20106;-79
2023/08/22 00:46:58;;;;;;;3.88;2.00;;;21.40;93.80;;;;;;5072601;28;20390;-79
2023/08/22 00:49:25;;;;;;;3.95;1.90;;;21.40;93.80;;;;;;5072071;28;20563;-79
2023/08/22 00:51:52;;;;;;;4.32;2.10;;;21.30;93.90;;;;;;5072744;28;20080;-79
2023/08/22 00:54:19;;;;;;;5.32;2.30;;;21.30;93.90;;;;;;5072605;28;20077;-79
2023/08/22 00:56:45;;;;;;;6.20;2.22;;;21.20;93.90;;;;;;5072092;28;20043;-79
2023/08/22 00:59:11;;;;;;;5.53;2.15;;;21.20;93.90;;;;;;5071184;28;20123;-79
2023/08/22 01:01:37;;;;;;;6.22;2.20;;;21.20;93.90;;;;;;5071798;28;20060;-79
2023/08/22 01:04:03;;;;;;;4.93;2.47;;;21.20;93.90;;;;;;5072550;28;20040;-78
2023/08/22 01:06:40;;;;;;;4.35;2.38;;;21.10;93.90;;;;;;5072271;28;20127;-79
2023/08/22 01:09:15;;;;;;;5.35;2.20;;;21.10;93.90;;;;;;5072280;28;20455;-79
2023/08/22 01:11:44;;;;;;;5.18;2.35;;;21.00;93.90;;;;;;5072181;28;20055;-79
2023/08/22 01:14:13;;;;;;;5.13;2.13;;;21.00;94.00;;;;;;5072671;28;20052;-80
2023/08/22 01:16:40;;;;;;;4.97;2.13;;;21.00;93.90;;;;;;5072224;28;20040;-79
2023/08/22 01:19:08;;;;;;;4.45;2.03;;;21.00;94.00;;;;;;5072361;28;20053;-79
2023/08/22 01:21:35;;;;;;;4.70;2.13;;;21.00;94.00;;;;;;5071892;28;20072;-79
2023/08/22 01:24:04;;;;;;;5.55;2.20;;;20.90;94.00;;;;;;5071193;28;20487;-79
2023/08/22 01:26:30;;;;;;;4.25;2.30;;;20.90;94.00;;;;;;5071790;28;20047;-79
2023/08/22 01:29:05;;;;;;;5.18;2.33;;;20.90;94.10;;;;;;5072229;28;20040;-79
2023/08/22 01:31:52;;;;;;;3.53;1.90;;;20.80;94.10;;;;;;5071276;28;20036;-78
2023/08/22 01:34:23;;;;;;;4.00;2.08;;;20.80;93.90;;;;;;5072307;28;20044;-79
2023/08/22 01:36:54;;;;;;;6.25;2.40;;;20.80;94.10;;;;;;5071537;28;20467;-78
2023/08/22 01:39:20;;;;;;;4.68;2.30;;;20.70;94.10;;;;;;5067374;28;20441;-79
2023/08/22 01:41:48;;;;;;;4.55;2.28;;;20.70;94.10;;;;;;5060968;28;20410;-78
2023/08/22 01:44:14;;;;;;;4.60;1.85;;;20.70;94.10;;;;;;5072081;28;20102;-78
2023/08/22 01:46:39;;;;;;;4.25;2.40;;;20.60;94.10;;;;;;5073263;28;20757;-78
2023/08/22 01:49:05;;;;;;;4.97;2.40;;;20.60;94.20;;;;;;5075830;28;20052;-79
2023/08/22 01:51:31;;;;;;;4.10;2.13;;;20.60;94.20;;;;;;5075201;28;20028;-78
2023/08/22 01:53:56;;;;;;;3.85;2.10;;;20.50;94.20;;;;;;5076263;28;20051;-79
2023/08/22 01:56:22;;;;;;;5.28;2.08;;;20.50;94.30;;;;;;5075968;28;20148;-78
2023/08/22 01:58:47;;;;;;;4.93;2.40;;;20.50;94.40;;;;;;5076003;28;20044;-79
2023/08/22 02:01:13;;;;;;;4.57;2.20;;;20.40;94.50;;;;;;5073358;28;20461;-78
2023/08/22 02:03:40;;;;;;;5.10;2.47;;;20.40;94.60;;;;;;5076001;28;20051;-78
2023/08/22 02:06:06;;;;;;;6.78;2.47;;;20.40;94.60;;;;;;5074554;28;20053;-79
2023/08/22 02:08:31;;;;;;;4.75;2.45;;;20.40;94.60;;;;;;5075730;28;20388;-79
2023/08/22 02:10:57;;;;;;;4.93;2.65;;;20.30;94.60;;;;;;5074546;28;20056;-78
2023/08/22 02:13:22;;;;;;;5.30;2.80;;;20.30;94.70;;;;;;5074861;28;20047;-79
2023/08/22 02:15:48;;;;;;;4.30;2.38;;;20.30;94.70;;;;;;5075008;28;20055;-78
2023/08/22 02:18:14;;;;;;;4.72;2.25;;;20.30;94.80;;;;;;5075401;28;20037;-79
2023/08/22 02:20:40;;;;;;;4.18;2.30;;;20.30;94.90;;;;;;5071117;28;20091;-80
2023/08/22 02:23:05;;;;;;;4.35;2.10;;;20.20;94.90;;;;;;5074717;28;20033;-79
2023/08/22 02:25:35;;;;;;;4.07;2.20;;;20.20;94.90;;;;;;5075662;28;20051;-79
2023/08/22 02:28:02;;;;;;;5.90;2.30;;;20.20;94.90;;;;;;5074831;28;20041;-79
2023/08/22 02:30:28;;;;;;;4.00;2.30;;;20.20;94.90;;;;;;5106675;28;20040;-79
2023/08/22 02:32:53;;;;;;;6.75;2.40;;;20.10;94.90;;;;;;5073659;28;20044;-79
2023/08/22 02:35:22;;;;;;;4.90;2.40;;;20.10;94.90;;;;;;5075275;28;20045;-79
2023/08/22 02:37:49;;;;;;;6.22;2.50;;;20.10;95.00;;;;;;5073972;28;20127;-79
2023/08/22 02:40:15;;;;;;;4.05;2.28;;;20.10;95.00;;;;;;5075377;28;20041;-78
2023/08/22 02:42:40;;;;;;;3.97;2.00;;;20.00;95.00;;;;;;5074446;28;20490;-79
2023/08/22 02:45:06;;;;;;;4.20;2.60;;;20.00;95.10;;;;;;5074674;28;20055;-78
2023/08/22 02:47:32;;;;;;;3.60;1.98;;;19.90;95.10;;;;;;5074686;28;20123;-79
2023/08/22 02:49:58;;;;;;;5.05;2.28;;;19.90;95.20;;;;;;5075004;28;20052;-79
2023/08/22 02:52:24;;;;;;;4.45;1.98;;;19.90;95.20;;;;;;5074700;28;20406;-79
2023/08/22 02:54:51;;;;;;;4.97;2.03;;;19.90;95.30;;;;;;5074965;28;20036;-79
2023/08/22 02:57:16;;;;;;;4.85;2.20;;;19.80;95.30;;;;;;5074653;28;20044;-77
2023/08/22 02:59:42;;;;;;;5.90;2.40;;;19.80;95.30;;;;;;5074473;28;20041;-79
2023/08/22 03:02:08;;;;;;;6.05;2.50;;;19.80;95.30;;;;;;5074101;28;20406;-79
2023/08/22 03:04:36;;;;;;;4.85;2.40;;;19.70;95.10;;;;;;5056734;28;20075;-78
2023/08/22 03:07:03;;;;;;;6.10;2.28;;;19.70;95.20;;;;;;5074428;28;20044;-79
2023/08/22 03:09:29;;;;;;;8.30;2.60;;;19.60;95.20;;;;;;5073403;28;20041;-79
2023/08/22 03:11:55;;;;;;;5.85;2.53;;;19.70;95.30;;;;;;5074461;28;20040;-79
2023/08/22 03:14:21;;;;;;;4.88;2.25;;;19.60;95.20;;;;;;5074407;28;20121;-79
2023/08/22 03:16:46;;;;;;;4.35;2.13;;;19.50;95.20;;;;;;5073957;28;20052;-79
2023/08/22 03:19:12;;;;;;;5.53;2.78;;;19.60;95.20;;;;;;5074536;28;20102;-79
2023/08/22 03:21:37;;;;;;;5.38;2.47;;;19.50;95.30;;;;;;5074376;28;20458;-79
2023/08/22 03:24:03;;;;;;;4.70;2.42;;;19.50;95.40;;;;;;5074130;28;20102;-79
2023/08/22 03:26:29;;;;;;;5.55;2.80;;;19.50;95.40;;;;;;5073296;28;20052;-79
2023/08/22 03:28:55;;;;;;;5.88;2.83;;;19.50;95.40;;;;;;5072541;28;20052;-79
2023/08/22 03:31:22;;;;;;;5.07;2.72;;;19.40;95.60;;;;;;5073116;28;20063;-79
2023/08/22 03:33:48;;;;;;;5.70;3.05;;;19.40;95.60;;;;;;5073889;28;20040;-79
2023/08/22 03:36:14;;;;;;;5.75;2.88;;;19.40;95.60;;;;;;5073994;28;20050;-79
2023/08/22 03:38:39;;;;;;;6.10;2.92;;;19.40;95.60;;;;;;5073763;28;20045;-79
2023/08/22 03:41:05;;;;;;;5.50;3.03;;;19.30;95.60;;;;;;5074162;28;20066;-79
2023/08/22 03:43:31;;;;;;;6.03;2.90;;;19.30;95.70;;;;;;5073625;28;20036;-78
2023/08/22 03:45:56;;;;;;;6.88;3.00;;;19.30;95.70;;;;;;5073459;28;20091;-79
2023/08/22 03:48:22;;;;;;;6.32;2.90;;;19.30;95.80;;;;;;5071079;28;20103;-79
2023/08/22 03:50:51;;;;;;;5.80;2.90;;;19.20;95.70;;;;;;5056916;28;20379;-79
2023/08/22 03:53:16;;;;;;;5.82;3.28;;;19.20;95.80;;;;;;5095885;28;20086;-79
2023/08/22 03:55:43;;;;;;;5.65;2.88;;;19.20;95.80;;;;;;5073822;28;20044;-79
2023/08/22 03:58:11;;;;;;;6.38;2.72;;;19.20;95.80;;;;;;5073219;28;20048;-79
2023/08/22 04:00:36;;;;;;;6.50;2.95;;;19.20;95.80;;;;;;5072643;28;20074;-79
2023/08/22 04:03:02;;;;;;;5.47;3.20;;;19.10;95.80;;;;;;5073723;28;20135;-79
2023/08/22 04:05:28;;;;;;;5.68;3.00;;;19.10;95.80;;;;;;5073202;28;20527;-79
2023/08/22 04:07:54;;;;;;;6.22;3.20;;;19.10;95.70;;;;;;5073353;28;20444;-79
2023/08/22 04:10:20;;;;;;;5.57;3.10;;;19.00;95.70;;;;;;5072766;28;20127;-78
2023/08/22 04:12:46;;;;;;;4.93;2.83;;;19.00;95.60;;;;;;5073529;28;20044;-78
2023/08/22 04:15:12;;;;;;;5.20;2.78;;;18.90;95.60;;;;;;5072428;28;20040;-78
2023/08/22 04:17:41;;;;;;;5.32;2.83;;;18.90;95.70;;;;;;5073492;28;20118;-79
2023/08/22 04:20:09;;;;;;;5.57;2.95;;;18.80;95.70;;;;;;5073304;28;20047;-79
2023/08/22 04:22:35;;;;;;;4.68;2.63;;;18.80;96.00;;;;;;5072108;28;20074;-79
2023/08/22 04:25:01;;;;;;;4.68;2.78;;;18.70;96.10;;;;;;5073365;28;20040;-79
2023/08/22 04:27:26;;;;;;;4.45;2.55;;;18.70;96.00;;;;;;5072877;28;20049;-79
2023/08/22 04:29:52;;;;;;;4.78;2.80;;;18.70;96.10;;;;;;5072936;28;20040;-79
2023/08/22 04:32:17;;;;;;;5.55;2.75;;;18.60;96.20;;;;;;5072456;28;20464;-79
2023/08/22 04:34:43;;;;;;;4.22;2.60;;;18.60;96.40;;;;;;5072802;28;20101;-79
2023/08/22 04:37:09;;;;;;;5.93;3.08;;;18.60;96.50;;;;;;5071771;28;20052;-79
2023/08/22 04:39:34;;;;;;;5.80;3.00;;;18.50;96.60;;;;;;5071908;28;20049;-79
2023/08/22 04:42:00;;;;;;;5.65;2.83;;;18.50;96.40;;;;;;5072717;28;20048;-79
2023/08/22 04:44:26;;;;;;;5.32;2.92;;;18.50;96.40;;;;;;5073079;28;20049;-79
2023/08/22 04:46:51;;;;;;;6.13;2.78;;;18.40;96.50;;;;;;5070939;28;20059;-79
2023/08/22 04:49:17;;;;;;;4.75;2.90;;;18.40;96.60;;;;;;5072576;28;20055;-79
2023/08/22 04:51:42;;;;;;;4.43;2.92;;;18.40;96.60;;;;;;5072741;28;20398;-79
2023/08/22 04:54:08;;;;;;;4.60;2.78;;;18.30;96.60;;;;;;5073060;28;20119;-79
2023/08/22 04:56:34;;;;;;;4.60;3.28;;;18.30;96.70;;;;;;5072511;28;20052;-79
2023/08/22 04:58:59;;;;;;;4.90;2.92;;;18.30;96.70;;;;;;5072552;28;20074;-79
2023/08/22 05:01:25;;;;;;;5.22;3.05;;;18.20;96.40;;;;;;5071767;28;20032;-79
2023/08/22 05:03:51;;;;;;;5.10;3.20;;;18.20;96.30;;;;;;5072773;28;20045;-79
2023/08/22 05:06:16;;;;;;;4.95;3.22;;;18.20;96.40;;;;;;5071945;28;20044;-80
2023/08/22 05:08:42;;;;;;;5.20;3.20;;;18.20;96.50;;;;;;5071629;28;20048;-79
2023/08/22 05:11:07;;;;;;;4.82;2.97;;;18.20;96.60;;;;;;5072591;28;20044;-79
2023/08/22 05:13:33;;;;;;;5.70;3.17;;;18.10;96.30;;;;;;5072609;28;20048;-79
2023/08/22 05:15:59;;;;;;;5.57;3.22;;;18.10;96.20;;;;;;5071066;28;20069;-79
2023/08/22 05:18:24;;;;;;;5.35;3.47;;;18.00;96.20;;;;;;5072161;28;20040;-79
2023/08/22 05:20:53;;;;;;;8.00;3.60;;;18.00;96.20;;;;;;5075133;28;20067;-78
2023/08/22 05:23:19;;;;;;;5.82;3.40;;;18.00;96.30;;;;;;5075856;28;20049;-80
2023/08/22 05:25:44;;;;;;;5.13;3.30;;;18.00;96.40;;;;;;5076949;28;20090;-79
2023/08/22 05:28:10;;;;;;;6.47;3.17;;;18.00;96.30;;;;;;5075408;28;20049;-79
2023/08/22 05:30:39;;;;;;;6.25;3.30;;;17.90;96.20;;;;;;5076577;28;20478;-79
2023/08/22 05:33:05;;;;;;;7.18;3.92;;;17.90;95.80;;;;;;5076223;28;20076;-78
2023/08/22 05:35:31;;;;;;;5.60;3.50;;;17.90;96.00;;;;;;5076224;28;20083;-79
2023/08/22 05:37:56;;;;;;;6.50;3.92;;;17.90;96.00;;;;;;5073048;28;21908;-79
2023/08/22 05:40:22;;;;;;;7.00;3.67;;;17.80;96.00;;;;;;5075835;28;20131;-79
2023/08/22 05:42:50;;;;;;;6.68;3.72;;;17.80;96.20;;;;;;5076107;28;20083;-79
2023/08/22 05:45:15;;;;;;;6.88;3.70;;;17.90;96.20;;;;;;5076173;28;20052;-79
2023/08/22 05:47:42;;;;;;;6.00;3.53;;;17.80;96.30;;;;;;5075180;28;20049;-79
2023/08/22 05:50:10;;;;;;;8.40;3.72;;;17.90;96.40;;;;;;5058564;28;20052;-79
2023/08/22 05:52:38;;;;;;;5.00;3.28;;;17.80;96.50;;;;;;5076328;28;20040;-79
2023/08/22 05:55:06;;;;;;;6.93;3.90;;;17.80;96.40;;;;;;5055264;28;20095;-79
2023/08/22 05:57:31;;;;;;;6.15;3.45;;;17.80;96.60;;;;;;5073413;28;20044;-79
2023/08/22 05:59:57;;;;;;;5.82;3.42;;;17.80;96.50;;;;;;5074423;28;20059;-78
2023/08/22 06:02:23;;;;;;;6.28;3.42;;;17.80;96.30;;;;;;5075041;28;20048;-78
2023/08/22 06:04:51;;;;;;;5.55;3.15;;;17.80;96.10;;;;;;5074665;28;20047;-79
2023/08/22 06:07:20;;;;;;;6.28;3.35;;;17.80;95.90;;;;;;5074953;28;20048;-79
2023/08/22 06:09:45;;;;;;;8.40;4.60;;;17.90;96.10;;;;;;5075726;28;20051;-79
2023/08/22 06:12:11;;;;;;;5.75;3.63;;;17.90;96.10;;;;;;5076150;28;20048;-79
2023/08/22 06:14:38;;;;;;;7.70;4.13;;;17.90;96.20;;;;;;5075469;28;20041;-78
2023/08/22 06:17:04;;;;;;;7.57;3.95;;;17.90;95.90;;;;;;5075359;28;20056;-79
2023/08/22 06:19:29;;;;;;;8.30;4.22;;;17.90;96.00;;;;;;5075411;28;20517;-79
2023/08/22 06:21:55;;;;;;;8.65;3.88;;;18.00;96.20;;;;;;5073089;28;20082;-79
2023/08/22 06:24:20;;;;;;;8.50;5.03;;;18.00;96.30;;;;;;5074179;28;20040;-79
2023/08/22 06:26:48;;;;;;;8.52;4.93;;;18.00;96.50;;;;;;5061240;28;20041;-79
2023/08/22 06:29:13;;;;;;;8.05;4.78;;;18.00;96.50;;;;;;5072756;28;20059;-79
2023/08/22 06:31:39;;;;;;;10.02;5.45;;;18.00;96.20;;;;;;5070361;28;20040;-80
2023/08/22 06:34:04;;;;;;;8.52;3.83;;;18.00;96.60;;;;;;5065766;28;20084;-80
2023/08/22 06:36:33;;;;;;;6.05;3.78;;;18.10;96.50;;;;;;5072087;28;20089;-79
2023/08/22 06:38:59;;;;;;;10.02;4.93;;;18.10;96.30;;;;;;5074489;28;20048;-79
2023/08/22 06:41:25;;;;;;;9.75;5.90;;;18.20;96.50;;;;;;5075523;28;20098;-79
2023/08/22 06:43:51;;;;;;;6.47;3.58;;;18.10;97.10;;;;;;5075269;28;20048;-79
2023/08/22 06:46:16;;;;;;;15.23;7.90;;;18.20;96.80;;;;;;5075672;28;20052;-79
2023/08/22 06:48:43;;;;;;;5.63;4.00;;;18.20;97.80;;;;;;5075923;28;20457;-79
2023/08/22 06:51:09;;;;;;;13.50;6.75;;;18.30;97.70;;;;;;5061025;28;20051;-79
2023/08/22 06:53:35;;;;;;;10.95;6.13;;;18.30;98.10;;;;;;5074231;28;20040;-79
2023/08/22 06:56:01;;;;;;;10.95;5.20;;;18.40;98.50;;;;;;5074615;28;20056;-79
2023/08/22 06:58:26;;;;;;;10.30;5.43;;;18.40;98.20;;;;;;5074506;28;20127;-79
2023/08/22 07:00:52;;;;;;;11.40;4.22;;;18.50;98.00;;;;;;5074357;28;20167;-79
2023/08/22 07:03:18;;;;;;;12.25;6.70;;;18.50;97.50;;;;;;5074409;28;20080;-79
2023/08/22 07:05:43;;;;;;;6.82;3.92;;;18.60;98.20;;;;;;5073453;28;20094;-80
2023/08/22 07:08:09;;;;;;;11.05;5.80;;;18.70;97.80;;;;;;5074116;28;20094;-79
2023/08/22 07:10:34;;;;;;;10.77;5.78;;;18.80;98.10;;;;;;5075827;28;20044;-79
2023/08/22 07:13:01;;;;;;;10.68;5.57;;;18.90;98.40;;;;;;5074418;28;20072;-79
2023/08/22 07:15:27;;;;;;;10.63;5.22;;;19.00;98.20;;;;;;5074377;28;20032;-80
2023/08/22 07:17:53;;;;;;;12.38;5.20;;;19.00;98.40;;;;;;5073786;28;20098;-79
2023/08/22 07:20:18;;;;;;;11.95;5.30;;;19.10;98.40;;;;;;5074248;28;20044;-79
2023/08/22 07:22:44;;;;;;;10.98;5.22;;;19.20;98.50;;;;;;5073394;28;20139;-79
2023/08/22 07:25:10;;;;;;;9.27;4.97;;;19.30;98.40;;;;;;5074055;28;20119;-79
2023/08/22 07:27:35;;;;;;;10.35;5.05;;;19.40;98.30;;;;;;5073926;28;20127;-80
2023/08/22 07:30:02;;;;;;;14.82;5.57;;;19.40;98.40;;;;;;5072994;28;20132;-78
2023/08/22 07:32:28;;;;;;;10.27;4.93;;;19.50;98.80;;;;;;5073190;28;20417;-79
2023/08/22 07:34:54;;;;;;;12.18;4.80;;;19.60;98.30;;;;;;5073937;28;20040;-79
2023/08/22 07:37:19;;;;;;;7.88;4.30;;;19.70;98.60;;;;;;5074099;28;20059;-79
2023/08/22 07:39:45;;;;;;;10.68;4.30;;;19.70;98.30;;;;;;5073781;28;20512;-79
2023/08/22 07:42:10;;;;;;;8.75;4.25;;;19.80;98.20;;;;;;5072361;28;20543;-79
2023/08/22 07:44:36;;;;;;;10.73;4.40;;;19.90;98.60;;;;;;5073892;28;20045;-79
2023/08/22 07:47:02;;;;;;;11.18;4.70;;;20.00;98.00;;;;;;5072249;28;20190;-80
2023/08/22 07:49:27;;;;;;;8.40;3.97;;;20.00;98.00;;;;;;5072144;28;20048;-79
2023/08/22 07:51:53;;;;;;;11.32;4.10;;;20.10;97.60;;;;;;5073764;28;20076;-79
2023/08/22 07:54:19;;;;;;;11.52;4.45;;;20.20;97.50;;;;;;5072146;28;20058;-79
2023/08/22 07:56:47;;;;;;;12.07;4.50;;;20.20;97.40;;;;;;5072719;28;20124;-79
2023/08/22 07:59:13;;;;;;;10.07;4.50;;;20.20;97.30;;;;;;5073419;28;20131;-79
2023/08/22 08:01:39;;;;;;;8.27;3.67;;;20.30;97.20;;;;;;5073347;28;20036;-79
2023/08/22 08:04:06;;;;;;;9.95;4.00;;;20.30;97.10;;;;;;5073242;28;20080;-80
2023/08/22 08:06:36;;;;;;;9.40;3.95;;;20.40;97.40;;;;;;5071973;28;20044;-80
2023/08/22 08:09:05;;;;;;;9.73;3.60;;;20.40;97.40;;;;;;5073089;28;20032;-79
2023/08/22 08:11:31;;;;;;;12.73;4.20;;;20.50;97.30;;;;;;5072337;28;20040;-79
2023/08/22 08:13:57;;;;;;;15.48;4.03;;;20.60;97.10;;;;;;5071705;28;20494;-79
2023/08/22 08:16:24;;;;;;;12.05;3.63;;;20.70;97.00;;;;;;5072499;28;20051;-79
2023/08/22 08:18:52;;;;;;;10.05;3.40;;;20.70;96.80;;;;;;5073070;28;20036;-80
2023/08/22 08:21:18;;;;;;;10.77;3.65;;;20.70;96.70;;;;;;5072885;28;20120;-79
2023/08/22 08:23:44;;;;;;;7.57;2.85;;;20.80;96.60;;;;;;5073344;28;20095;-79
2023/08/22 08:26:11;;;;;;;10.63;2.92;;;20.80;96.30;;;;;;5071693;28;20055;-79
2023/08/22 08:28:37;;;;;;;7.90;2.60;;;20.90;96.20;;;;;;5073002;28;20051;-79
2023/08/22 08:31:06;;;;;;;10.60;2.72;;;20.90;95.90;;;;;;5070727;28;20045;-79
2023/08/22 08:33:32;;;;;;;8.77;2.40;;;21.00;95.80;;;;;;5073043;28;20059;-79
2023/08/22 08:35:57;;;;;;;7.95;2.22;;;21.00;95.40;;;;;;5072739;28;20053;-79
2023/08/22 08:38:23;;;;;;;10.18;2.47;;;21.10;95.20;;;;;;5072752;28;20093;-79
2023/08/22 08:40:51;;;;;;;7.20;2.40;;;21.10;95.30;;;;;;5072585;28;20048;-79
2023/08/22 08:43:19;;;;;;;5.82;2.40;;;21.20;94.90;;;;;;5073174;28;20051;-80
2023/08/22 08:45:45;;;;;;;5.97;2.33;;;21.20;94.70;;;;;;5072496;28;20037;-79
2023/08/22 08:48:12;;;;;;;5.60;1.98;;;21.30;94.40;;;;;;5072060;28;20053;-79
2023/08/22 08:50:38;;;;;;;4.70;1.77;;;21.30;94.40;;;;;;5070111;28;20510;-79
2023/08/22 08:53:04;;;;;;;5.32;1.63;;;21.40;94.40;;;;;;5072538;28;20040;-79
2023/08/22 08:55:31;;;;;;;5.47;1.60;;;21.40;93.90;;;;;;5072472;28;20472;-79
2023/08/22 08:57:56;;;;;;;6.43;1.50;;;21.50;93.50;;;;;;5072349;28;20082;-79
2023/08/22 09:00:22;;;;;;;5.50;1.60;;;21.50;93.50;;;;;;5072426;28;20084;-79
2023/08/22 09:02:49;;;;;;;5.50;1.92;;;21.60;93.30;;;;;;5072150;28;20573;-79
2023/08/22 09:05:16;;;;;;;7.88;1.70;;;21.70;93.10;;;;;;5072628;28;20107;-79
2023/08/22 09:07:44;;;;;;;4.68;1.60;;;21.70;93.20;;;;;;5072522;28;20115;-79
2023/08/22 09:10:10;;;;;;;4.72;1.60;;;21.80;93.30;;;;;;5073018;28;20048;-79
2023/08/22 09:12:37;;;;;;;5.15;1.50;;;21.80;93.30;;;;;;5072164;28;20044;-80
2023/08/22 09:15:06;;;;;;;8.73;1.80;;;21.90;92.90;;;;;;5072701;28;20088;-78
2023/08/22 09:17:32;;;;;;;6.18;1.67;;;22.00;92.90;;;;;;5066691;28;20109;-79
2023/08/22 09:19:58;;;;;;;4.70;2.00;;;22.10;92.50;;;;;;5072924;28;20049;-79
2023/08/22 09:22:30;;;;;;;5.50;1.90;;;22.10;92.50;;;;;;5071925;28;20048;-80
2023/08/22 09:24:56;;;;;;;8.85;2.35;;;22.20;92.70;;;;;;5071741;28;20055;-79
2023/08/22 09:27:26;;;;;;;6.25;1.95;;;22.30;92.70;;;;;;5071968;28;20037;-79
2023/08/22 09:29:53;;;;;;;3.65;1.55;;;22.40;92.40;;;;;;5052564;28;20049;-79
2023/08/22 09:32:22;;;;;;;6.82;2.35;;;22.50;92.80;;;;;;5070719;28;20402;-79
2023/08/22 09:34:58;;;;;;;5.38;2.10;;;22.60;92.70;;;;;;5072298;28;20063;-79
2023/08/22 09:37:35;;;;;;;5.38;2.08;;;22.70;92.40;;;;;;5072316;28;20048;-79
2023/08/22 09:40:05;;;;;;;5.72;2.00;;;22.70;92.20;;;;;;5071199;28;20056;-79
2023/08/22 09:42:31;;;;;;;6.70;2.47;;;22.80;92.30;;;;;;5072069;28;20517;-78
2023/08/22 09:44:57;;;;;;;6.43;2.60;;;22.90;92.10;;;;;;5072818;28;20091;-79
2023/08/22 09:47:29;;;;;;;6.28;2.67;;;23.00;91.90;;;;;;5071494;28;20048;-79
2023/08/22 09:49:58;;;;;;;7.53;3.13;;;23.10;91.90;;;;;;5071934;28;20052;-80
2023/08/22 09:52:25;;;;;;;5.55;2.60;;;23.10;91.70;;;;;;5070972;28;20283;-79
2023/08/22 09:54:55;;;;;;;7.90;3.40;;;23.20;91.80;;;;;;5071577;28;20127;-79
2023/08/22 09:57:23;;;;;;;7.60;2.80;;;23.30;91.30;;;;;;5072384;28;20410;-79
2023/08/22 09:59:49;;;;;;;6.43;3.03;;;23.30;91.50;;;;;;5053633;28;20060;-79
2023/08/22 10:02:18;;;;;;;7.95;3.45;;;23.30;91.90;;;;;;5066061;28;20119;-79
2023/08/22 10:04:44;;;;;;;14.00;3.25;;;23.40;91.10;;;;;;5060139;28;20045;-79
2023/08/22 10:07:10;;;;;;;7.07;2.35;;;23.40;91.30;;;;;;5067825;28;20102;-80
2023/08/22 10:09:38;;;;;;;9.70;3.30;;;23.40;91.80;;;;;;5073376;28;20121;-78
2023/08/22 10:12:07;;;;;;;7.10;2.67;;;23.40;90.90;;;;;;5075384;28;20115;-78
2023/08/22 10:14:37;;;;;;;6.88;2.92;;;23.50;91.60;;;;;;5062608;28;20045;-78
2023/08/22 10:17:03;;;;;;;7.65;3.50;;;23.60;91.70;;;;;;5068049;28;20045;-78
2023/08/22 10:19:30;;;;;;;6.95;3.20;;;23.60;91.30;;;;;;5063993;28;20045;-79
2023/08/22 10:22:06;;;;;;;7.55;3.22;;;23.70;91.20;;;;;;5063569;28;20491;-78
2023/08/22 10:24:32;;;;;;;6.40;2.58;;;23.70;91.60;;;;;;5064954;28;20778;-78
2023/08/22 10:27:10;;;;;;;9.27;4.85;;;23.80;91.90;;;;;;5065036;28;20044;-78
2023/08/22 10:30:21;;;;;;;7.38;3.90;;;23.80;90.60;;;;;;5070280;28;20166;-78
2023/08/22 10:33:04;;;;;;;6.75;2.85;;;23.80;90.90;;;;;;5061288;28;20076;-78
2023/08/22 10:35:30;;;;;;;8.05;2.92;;;23.80;90.80;;;;;;5067498;28;20635;-78
2023/08/22 10:37:56;;;;;;;7.15;3.08;;;23.90;90.40;;;;;;5074369;28;20044;-78
2023/08/22 10:40:33;;;;;;;6.57;2.75;;;23.90;90.50;;;;;;5072902;28;20041;-79
2023/08/22 10:43:12;;;;;;;6.43;2.75;;;24.00;91.30;;;;;;5066761;28;20406;-78
2023/08/22 10:45:46;;;;;;;6.60;2.47;;;24.00;91.00;;;;;;5062037;28;20041;-79
2023/08/22 10:48:12;;;;;;;9.60;2.95;;;24.10;90.80;;;;;;5072405;28;20040;-78
2023/08/22 10:50:43;;;;;;;8.43;2.80;;;24.10;90.50;;;;;;5073513;28;20053;-80
2023/08/22 10:53:27;;;;;;;7.93;2.47;;;24.20;90.60;;;;;;5073578;28;20044;-80
2023/08/22 10:55:53;;;;;;;5.43;2.45;;;24.30;90.30;;;;;;5055125;28;20094;-80
2023/08/22 10:58:39;;;;;;;8.73;2.08;;;24.30;90.00;;;;;;5062338;28;20403;-82
2023/08/22 11:01:07;;;;;;;4.55;2.08;;;24.30;89.40;;;;;;5071524;28;20040;-81
2023/08/22 11:03:33;;;;;;;7.50;2.10;;;24.40;90.10;;;;;;5069861;28;20041;-79
2023/08/22 11:05:59;;;;;;;4.65;1.83;;;24.50;89.20;;;;;;5069660;28;20562;-80
2023/08/22 11:08:28;;;;;;;5.10;1.90;;;24.60;89.00;;;;;;5061855;28;20104;-81
2023/08/22 11:10:58;;;;;;;7.30;2.28;;;24.60;89.50;;;;;;5062638;28;20049;-81
2023/08/22 11:13:37;;;;;;;6.03;2.13;;;24.70;88.30;;;;;;5056402;28;20148;-81
2023/08/22 11:16:08;;;;;;;6.90;2.15;;;24.70;90.00;;;;;;5068196;28;20084;-81
2023/08/22 11:18:34;;;;;;;5.15;1.85;;;24.80;87.70;;;;;;5072553;28;20036;-81
2023/08/22 11:20:59;;;;;;;4.97;1.70;;;24.90;86.80;;;;;;5074622;28;20368;-81
2023/08/22 11:23:25;;;;;;;6.05;1.83;;;24.90;86.70;;;;;;5057724;28;20045;-81
2023/08/22 11:25:51;;;;;;;5.55;1.83;;;24.90;85.90;;;;;;5063049;28;20242;-81
2023/08/22 11:28:16;;;;;;;5.32;1.70;;;25.00;85.40;;;;;;5073861;28;20052;-81
2023/08/22 11:30:42;;;;;;;4.32;1.58;;;25.10;84.60;;;;;;5073795;28;20055;-81
2023/08/22 11:33:08;;;;;;;5.95;1.80;;;25.10;85.60;;;;;;5072926;28;20485;-81
2023/08/22 11:35:34;;;;;;;5.95;1.65;;;25.20;87.60;;;;;;5085623;28;20401;-81
2023/08/22 11:37:59;;;;;;;5.20;1.70;;;25.30;89.20;;;;;;5084271;28;20049;-81
2023/08/22 11:40:25;;;;;;;4.70;1.73;;;25.30;87.80;;;;;;5073322;28;20153;-81
2023/08/22 11:42:51;;;;;;;5.63;1.80;;;25.40;88.10;;;;;;5073893;28;20060;-80
2023/08/22 11:45:21;;;;;;;5.30;1.85;;;25.50;86.80;;;;;;5074100;28;20158;-81
2023/08/22 11:47:48;;;;;;;4.85;1.90;;;25.50;87.70;;;;;;5071671;28;20399;-81
2023/08/22 11:50:36;;;;;;;6.05;1.63;;;25.50;87.10;;;;;;5072720;28;20509;-81
2023/08/22 11:53:15;;;;;;;5.22;1.73;;;25.60;87.50;;;;;;5073286;28;20053;-81
2023/08/22 11:55:47;;;;;;;6.78;1.90;;;25.60;86.60;;;;;;5073890;28;20044;-81
2023/08/22 11:58:17;;;;;;;5.40;1.70;;;25.70;86.00;;;;;;5073569;28;20040;-80
2023/08/22 12:00:43;;;;;;;5.88;1.92;;;25.70;85.70;;;;;;5072604;28;20090;-81
2023/08/22 12:03:09;;;;;;;9.40;1.88;;;25.80;84.40;;;;;;5072522;28;20052;-81
2023/08/22 12:05:36;;;;;;;6.18;1.70;;;25.80;83.70;;;;;;5073029;28;20056;-81
2023/08/22 12:08:11;;;;;;;6.55;1.80;;;25.90;85.50;;;;;;5072649;28;20482;-80
2023/08/22 12:10:50;;;;;;;6.47;2.22;;;25.90;83.30;;;;;;5072866;28;20071;-80
2023/08/22 12:13:23;;;;;;;6.93;2.40;;;26.00;85.40;;;;;;5073058;28;20063;-81
2023/08/22 12:15:50;;;;;;;5.40;2.20;;;26.00;85.30;;;;;;5073527;28;20044;-81
2023/08/22 12:18:16;;;;;;;7.57;2.20;;;26.10;85.30;;;;;;5073369;28;20048;-82
2023/08/22 12:20:44;;;;;;;6.10;2.00;;;26.10;85.30;;;;;;5057984;28;20127;-81
2023/08/22 12:23:11;;;;;;;8.43;3.10;;;26.20;85.80;;;;;;5073599;28;20040;-80
2023/08/22 12:25:42;;;;;;;4.80;1.70;;;26.20;85.40;;;;;;5072760;28;20048;-81
2023/08/22 12:28:08;;;;;;;6.10;1.60;;;26.30;84.00;;;;;;5072262;28;20048;-81
2023/08/22 12:30:35;;;;;;;4.43;1.63;;;26.30;82.10;;;;;;5070831;28;20135;-81
2023/08/22 12:33:03;;;;;;;5.50;2.03;;;26.30;84.90;;;;;;5071869;28;20044;-80
2023/08/22 12:35:35;;;;;;;6.88;2.45;;;26.40;87.00;;;;;;5071391;28;20124;-80
2023/08/22 12:38:02;;;;;;;;;;;26.40;84.70;;;;;;5071867;28;20048;-81
2023/08/22 12:40:28;;;;;;;5.13;1.75;;;26.30;83.60;;;;;;5072141;28;19924;-80
2023/08/22 12:42:54;;;;;;;6.57;1.80;;;26.40;85.80;;;;;;5071552;28;20545;-81
2023/08/22 12:45:21;;;;;;;6.45;2.00;;;26.40;86.10;;;;;;5072489;28;20045;-81